sensor_id;sensor_type;location;lat;lon;timestamp;P1;durP1;ratioP1;P2;durP2;ratioP2
76103;SDS011;64831;44.870;37.336;2023-01-15T00:01:03;28.60;;;10.43;;
76103;SDS011;64831;44.870;37.336;2023-01-15T00:03:29;36.15;;;11.75;;
76103;SDS011;64831;44.870;37.336;2023-01-15T00:06:00;27.52;;;10.45;;
76103;SDS011;64831;44.870;37.336;2023-01-15T00:08:26;35.55;;;12.15;;
76103;SDS011;64831;44.870;37.336;2023-01-15T00:10:53;19.50;;;6.60;;
76103;SDS011;64831;44.870;37.336;2023-01-15T00:13:20;27.67;;;9.38;;
76103;SDS011;64831;44.870;37.336;2023-01-15T00:15:46;30.77;;;10.05;;
76103;SDS011;64831;44.870;37.336;2023-01-15T00:18:12;30.48;;;10.07;;
76103;SDS011;64831;44.870;37.336;2023-01-15T00:20:37;30.88;;;11.10;;
76103;SDS011;64831;44.870;37.336;2023-01-15T00:23:03;28.48;;;9.60;;
76103;SDS011;64831;44.870;37.336;2023-01-15T00:25:30;30.75;;;10.15;;
76103;SDS011;64831;44.870;37.336;2023-01-15T00:28:14;28.27;;;8.57;;
76103;SDS011;64831;44.870;37.336;2023-01-15T00:30:44;26.73;;;9.60;;
76103;SDS011;64831;44.870;37.336;2023-01-15T00:33:10;19.10;;;6.10;;
76103;SDS011;64831;44.870;37.336;2023-01-15T00:35:36;28.15;;;8.15;;
76103;SDS011;64831;44.870;37.336;2023-01-15T00:38:01;22.27;;;6.60;;
76103;SDS011;64831;44.870;37.336;2023-01-15T00:40:28;24.90;;;8.70;;
76103;SDS011;64831;44.870;37.336;2023-01-15T00:42:54;22.98;;;8.68;;
76103;SDS011;64831;44.870;37.336;2023-01-15T00:45:20;27.52;;;8.48;;
76103;SDS011;64831;44.870;37.336;2023-01-15T00:47:47;24.92;;;7.30;;
76103;SDS011;64831;44.870;37.336;2023-01-15T00:50:14;26.83;;;4.22;;
76103;SDS011;64831;44.870;37.336;2023-01-15T00:52:40;24.73;;;6.82;;
76103;SDS011;64831;44.870;37.336;2023-01-15T00:55:07;21.80;;;5.90;;
76103;SDS011;64831;44.870;37.336;2023-01-15T00:57:33;29.48;;;7.25;;
76103;SDS011;64831;44.870;37.336;2023-01-15T00:59:59;22.90;;;5.10;;
76103;SDS011;64831;44.870;37.336;2023-01-15T01:02:25;25.30;;;6.90;;
76103;SDS011;64831;44.870;37.336;2023-01-15T01:04:51;31.27;;;7.45;;
76103;SDS011;64831;44.870;37.336;2023-01-15T01:07:16;7.15;;;3.25;;
76103;SDS011;64831;44.870;37.336;2023-01-15T01:09:42;17.38;;;5.03;;
76103;SDS011;64831;44.870;37.336;2023-01-15T01:12:08;12.32;;;4.05;;
76103;SDS011;64831;44.870;37.336;2023-01-15T01:14:35;14.40;;;4.32;;
76103;SDS011;64831;44.870;37.336;2023-01-15T01:17:02;22.15;;;4.68;;
76103;SDS011;64831;44.870;37.336;2023-01-15T01:19:28;15.20;;;3.95;;
76103;SDS011;64831;44.870;37.336;2023-01-15T01:21:54;21.63;;;6.47;;
76103;SDS011;64831;44.870;37.336;2023-01-15T01:24:21;18.38;;;5.47;;
76103;SDS011;64831;44.870;37.336;2023-01-15T01:26:49;13.35;;;4.75;;
76103;SDS011;64831;44.870;37.336;2023-01-15T01:29:19;9.80;;;3.40;;
76103;SDS011;64831;44.870;37.336;2023-01-15T01:31:46;24.50;;;6.85;;
76103;SDS011;64831;44.870;37.336;2023-01-15T01:34:13;18.42;;;6.82;;
76103;SDS011;64831;44.870;37.336;2023-01-15T01:36:40;23.77;;;6.95;;
76103;SDS011;64831;44.870;37.336;2023-01-15T01:39:16;25.95;;;7.75;;
76103;SDS011;64831;44.870;37.336;2023-01-15T01:41:43;19.65;;;5.70;;
76103;SDS011;64831;44.870;37.336;2023-01-15T01:46:59;12.25;;;4.93;;
76103;SDS011;64831;44.870;37.336;2023-01-15T01:49:27;28.70;;;8.07;;
76103;SDS011;64831;44.870;37.336;2023-01-15T01:51:58;21.95;;;7.78;;
76103;SDS011;64831;44.870;37.336;2023-01-15T01:54:31;25.70;;;7.43;;
76103;SDS011;64831;44.870;37.336;2023-01-15T01:56:59;28.15;;;6.70;;
76103;SDS011;64831;44.870;37.336;2023-01-15T01:59:25;20.83;;;4.63;;
76103;SDS011;64831;44.870;37.336;2023-01-15T02:01:52;22.65;;;3.80;;
76103;SDS011;64831;44.870;37.336;2023-01-15T02:04:19;19.08;;;6.05;;
76103;SDS011;64831;44.870;37.336;2023-01-15T02:06:47;20.98;;;6.85;;
76103;SDS011;64831;44.870;37.336;2023-01-15T02:09:13;31.23;;;8.40;;
76103;SDS011;64831;44.870;37.336;2023-01-15T02:11:39;12.65;;;4.65;;
76103;SDS011;64831;44.870;37.336;2023-01-15T02:14:15;17.92;;;6.63;;
76103;SDS011;64831;44.870;37.336;2023-01-15T02:16:55;23.92;;;7.25;;
76103;SDS011;64831;44.870;37.336;2023-01-15T02:19:44;10.70;;;3.50;;
76103;SDS011;64831;44.870;37.336;2023-01-15T02:22:37;8.50;;;3.15;;
76103;SDS011;64831;44.870;37.336;2023-01-15T02:27:43;13.25;;;4.05;;
76103;SDS011;64831;44.870;37.336;2023-01-15T02:30:15;12.85;;;4.70;;
76103;SDS011;64831;44.870;37.336;2023-01-15T02:33:30;22.65;;;5.13;;
76103;SDS011;64831;44.870;37.336;2023-01-15T02:35:54;6.20;;;2.90;;
76103;SDS011;64831;44.870;37.336;2023-01-15T02:38:34;14.90;;;3.17;;
76103;SDS011;64831;44.870;37.336;2023-01-15T02:41:03;12.25;;;4.25;;
76103;SDS011;64831;44.870;37.336;2023-01-15T02:43:36;14.52;;;4.80;;
76103;SDS011;64831;44.870;37.336;2023-01-15T02:46:04;19.80;;;5.63;;
76103;SDS011;64831;44.870;37.336;2023-01-15T02:48:32;28.58;;;7.93;;
76103;SDS011;64831;44.870;37.336;2023-01-15T02:51:05;20.30;;;5.53;;
76103;SDS011;64831;44.870;37.336;2023-01-15T02:53:37;13.02;;;4.05;;
76103;SDS011;64831;44.870;37.336;2023-01-15T02:56:12;24.50;;;6.90;;
76103;SDS011;64831;44.870;37.336;2023-01-15T02:58:49;23.35;;;5.93;;
76103;SDS011;64831;44.870;37.336;2023-01-15T03:01:25;14.38;;;5.35;;
76103;SDS011;64831;44.870;37.336;2023-01-15T03:09:32;25.63;;;5.55;;
76103;SDS011;64831;44.870;37.336;2023-01-15T03:12:10;21.63;;;5.57;;
76103;SDS011;64831;44.870;37.336;2023-01-15T03:14:59;18.08;;;4.47;;
76103;SDS011;64831;44.870;37.336;2023-01-15T03:17:37;16.35;;;4.43;;
76103;SDS011;64831;44.870;37.336;2023-01-15T03:20:12;30.38;;;5.20;;
76103;SDS011;64831;44.870;37.336;2023-01-15T03:22:47;21.42;;;5.82;;
76103;SDS011;64831;44.870;37.336;2023-01-15T03:25:23;21.98;;;5.30;;
76103;SDS011;64831;44.870;37.336;2023-01-15T03:27:55;27.10;;;6.13;;
76103;SDS011;64831;44.870;37.336;2023-01-15T03:30:26;33.38;;;5.68;;
76103;SDS011;64831;44.870;37.336;2023-01-15T03:32:55;16.92;;;5.80;;
76103;SDS011;64831;44.870;37.336;2023-01-15T03:38:22;20.23;;;4.85;;
76103;SDS011;64831;44.870;37.336;2023-01-15T03:43:42;29.87;;;5.97;;
76103;SDS011;64831;44.870;37.336;2023-01-15T03:46:26;27.58;;;6.32;;
76103;SDS011;64831;44.870;37.336;2023-01-15T03:54:02;18.15;;;5.47;;
76103;SDS011;64831;44.870;37.336;2023-01-15T03:56:39;22.02;;;5.95;;
76103;SDS011;64831;44.870;37.336;2023-01-15T03:59:22;23.65;;;5.55;;
76103;SDS011;64831;44.870;37.336;2023-01-15T04:01:59;27.92;;;6.60;;
76103;SDS011;64831;44.870;37.336;2023-01-15T04:04:28;28.73;;;6.07;;
76103;SDS011;64831;44.870;37.336;2023-01-15T04:06:55;25.40;;;5.53;;
76103;SDS011;64831;44.870;37.336;2023-01-15T04:09:22;28.38;;;6.10;;
76103;SDS011;64831;44.870;37.336;2023-01-15T04:11:52;19.65;;;5.22;;
76103;SDS011;64831;44.870;37.336;2023-01-15T04:14:18;16.25;;;4.82;;
76103;SDS011;64831;44.870;37.336;2023-01-15T04:16:50;20.77;;;5.22;;
76103;SDS011;64831;44.870;37.336;2023-01-15T04:19:21;21.73;;;6.30;;
76103;SDS011;64831;44.870;37.336;2023-01-15T04:21:58;31.80;;;7.60;;
76103;SDS011;64831;44.870;37.336;2023-01-15T04:24:23;16.90;;;4.53;;
76103;SDS011;64831;44.870;37.336;2023-01-15T04:26:49;20.92;;;6.65;;
76103;SDS011;64831;44.870;37.336;2023-01-15T04:29:15;10.13;;;3.70;;
76103;SDS011;64831;44.870;37.336;2023-01-15T04:31:41;15.80;;;4.32;;
76103;SDS011;64831;44.870;37.336;2023-01-15T04:34:07;24.27;;;6.05;;
76103;SDS011;64831;44.870;37.336;2023-01-15T04:36:33;19.83;;;5.93;;
76103;SDS011;64831;44.870;37.336;2023-01-15T04:39:03;19.93;;;5.43;;
76103;SDS011;64831;44.870;37.336;2023-01-15T04:41:29;15.82;;;4.95;;
76103;SDS011;64831;44.870;37.336;2023-01-15T04:44:14;17.05;;;5.43;;
76103;SDS011;64831;44.870;37.336;2023-01-15T04:46:42;20.33;;;5.45;;
76103;SDS011;64831;44.870;37.336;2023-01-15T04:49:10;20.50;;;5.10;;
76103;SDS011;64831;44.870;37.336;2023-01-15T04:51:39;18.60;;;5.72;;
76103;SDS011;64831;44.870;37.336;2023-01-15T04:54:06;20.50;;;6.13;;
76103;SDS011;64831;44.870;37.336;2023-01-15T04:56:36;21.42;;;6.47;;
76103;SDS011;64831;44.870;37.336;2023-01-15T04:59:07;31.30;;;6.60;;
76103;SDS011;64831;44.870;37.336;2023-01-15T05:01:33;20.02;;;6.78;;
76103;SDS011;64831;44.870;37.336;2023-01-15T05:03:59;23.67;;;6.82;;
76103;SDS011;64831;44.870;37.336;2023-01-15T05:06:25;26.48;;;6.45;;
76103;SDS011;64831;44.870;37.336;2023-01-15T05:08:52;25.63;;;6.90;;
76103;SDS011;64831;44.870;37.336;2023-01-15T05:11:18;20.98;;;6.55;;
76103;SDS011;64831;44.870;37.336;2023-01-15T05:13:44;27.77;;;7.18;;
76103;SDS011;64831;44.870;37.336;2023-01-15T05:16:11;20.65;;;6.32;;
76103;SDS011;64831;44.870;37.336;2023-01-15T05:18:40;28.42;;;8.18;;
76103;SDS011;64831;44.870;37.336;2023-01-15T05:21:12;22.77;;;7.28;;
76103;SDS011;64831;44.870;37.336;2023-01-15T05:24:04;22.65;;;6.93;;
76103;SDS011;64831;44.870;37.336;2023-01-15T05:26:33;22.77;;;7.03;;
76103;SDS011;64831;44.870;37.336;2023-01-15T05:29:00;23.98;;;6.90;;
76103;SDS011;64831;44.870;37.336;2023-01-15T05:31:27;26.35;;;6.80;;
76103;SDS011;64831;44.870;37.336;2023-01-15T05:33:53;23.60;;;7.25;;
76103;SDS011;64831;44.870;37.336;2023-01-15T05:36:21;22.05;;;6.70;;
76103;SDS011;64831;44.870;37.336;2023-01-15T05:38:49;15.60;;;6.03;;
76103;SDS011;64831;44.870;37.336;2023-01-15T05:41:16;20.30;;;6.63;;
76103;SDS011;64831;44.870;37.336;2023-01-15T05:44:05;23.23;;;6.85;;
76103;SDS011;64831;44.870;37.336;2023-01-15T05:46:33;24.88;;;6.80;;
76103;SDS011;64831;44.870;37.336;2023-01-15T05:49:01;13.60;;;4.55;;
76103;SDS011;64831;44.870;37.336;2023-01-15T05:51:29;19.35;;;6.57;;
76103;SDS011;64831;44.870;37.336;2023-01-15T05:53:58;23.90;;;6.72;;
76103;SDS011;64831;44.870;37.336;2023-01-15T05:56:24;19.77;;;6.05;;
76103;SDS011;64831;44.870;37.336;2023-01-15T05:58:50;17.13;;;6.13;;
76103;SDS011;64831;44.870;37.336;2023-01-15T06:01:17;18.48;;;6.70;;
76103;SDS011;64831;44.870;37.336;2023-01-15T06:03:42;5.70;;;2.78;;
76103;SDS011;64831;44.870;37.336;2023-01-15T06:06:12;21.45;;;5.53;;
76103;SDS011;64831;44.870;37.336;2023-01-15T06:08:40;20.27;;;6.45;;
76103;SDS011;64831;44.870;37.336;2023-01-15T06:11:06;23.10;;;6.50;;
76103;SDS011;64831;44.870;37.336;2023-01-15T06:13:32;18.48;;;5.70;;
76103;SDS011;64831;44.870;37.336;2023-01-15T06:15:59;26.08;;;6.53;;
76103;SDS011;64831;44.870;37.336;2023-01-15T06:18:25;23.65;;;5.50;;
76103;SDS011;64831;44.870;37.336;2023-01-15T06:20:51;21.88;;;6.88;;
76103;SDS011;64831;44.870;37.336;2023-01-15T06:23:17;18.50;;;6.70;;
76103;SDS011;64831;44.870;37.336;2023-01-15T06:25:44;21.85;;;7.07;;
76103;SDS011;64831;44.870;37.336;2023-01-15T06:28:10;23.52;;;6.43;;
76103;SDS011;64831;44.870;37.336;2023-01-15T06:30:36;23.25;;;7.72;;
76103;SDS011;64831;44.870;37.336;2023-01-15T06:33:03;26.25;;;6.63;;
76103;SDS011;64831;44.870;37.336;2023-01-15T06:35:30;23.70;;;7.15;;
76103;SDS011;64831;44.870;37.336;2023-01-15T06:37:56;22.02;;;5.75;;
76103;SDS011;64831;44.870;37.336;2023-01-15T06:40:22;14.15;;;5.80;;
76103;SDS011;64831;44.870;37.336;2023-01-15T06:42:50;22.27;;;6.90;;
76103;SDS011;64831;44.870;37.336;2023-01-15T06:45:37;24.73;;;7.68;;
76103;SDS011;64831;44.870;37.336;2023-01-15T06:48:24;25.25;;;8.15;;
76103;SDS011;64831;44.870;37.336;2023-01-15T06:50:51;25.52;;;8.13;;
76103;SDS011;64831;44.870;37.336;2023-01-15T06:53:20;22.27;;;7.43;;
76103;SDS011;64831;44.870;37.336;2023-01-15T06:55:46;26.50;;;8.50;;
76103;SDS011;64831;44.870;37.336;2023-01-15T06:58:12;26.30;;;8.93;;
76103;SDS011;64831;44.870;37.336;2023-01-15T07:00:38;13.43;;;3.88;;
76103;SDS011;64831;44.870;37.336;2023-01-15T07:03:07;32.90;;;8.15;;
76103;SDS011;64831;44.870;37.336;2023-01-15T07:05:33;21.33;;;7.05;;
76103;SDS011;64831;44.870;37.336;2023-01-15T07:08:02;28.25;;;8.88;;
76103;SDS011;64831;44.870;37.336;2023-01-15T07:10:28;13.32;;;5.03;;
76103;SDS011;64831;44.870;37.336;2023-01-15T07:12:53;25.52;;;7.47;;
76103;SDS011;64831;44.870;37.336;2023-01-15T07:15:19;22.38;;;7.45;;
76103;SDS011;64831;44.870;37.336;2023-01-15T07:17:45;17.58;;;6.55;;
76103;SDS011;64831;44.870;37.336;2023-01-15T07:20:11;22.30;;;5.18;;
76103;SDS011;64831;44.870;37.336;2023-01-15T07:22:37;8.13;;;3.35;;
76103;SDS011;64831;44.870;37.336;2023-01-15T07:25:03;24.83;;;6.72;;
76103;SDS011;64831;44.870;37.336;2023-01-15T07:27:29;18.48;;;7.10;;
76103;SDS011;64831;44.870;37.336;2023-01-15T07:29:55;19.15;;;6.63;;
76103;SDS011;64831;44.870;37.336;2023-01-15T07:32:21;17.23;;;5.30;;
76103;SDS011;64831;44.870;37.336;2023-01-15T07:34:47;20.55;;;6.70;;
76103;SDS011;64831;44.870;37.336;2023-01-15T07:37:12;13.50;;;5.07;;
76103;SDS011;64831;44.870;37.336;2023-01-15T07:39:38;15.90;;;5.63;;
76103;SDS011;64831;44.870;37.336;2023-01-15T07:42:04;14.13;;;3.97;;
76103;SDS011;64831;44.870;37.336;2023-01-15T07:44:48;7.90;;;2.80;;
76103;SDS011;64831;44.870;37.336;2023-01-15T07:47:33;12.20;;;4.53;;
76103;SDS011;64831;44.870;37.336;2023-01-15T07:50:18;22.17;;;7.47;;
76103;SDS011;64831;44.870;37.336;2023-01-15T07:52:46;23.73;;;7.10;;
76103;SDS011;64831;44.870;37.336;2023-01-15T07:55:12;15.07;;;6.82;;
76103;SDS011;64831;44.870;37.336;2023-01-15T07:57:39;20.02;;;7.10;;
76103;SDS011;64831;44.870;37.336;2023-01-15T08:00:06;23.63;;;8.45;;
76103;SDS011;64831;44.870;37.336;2023-01-15T08:02:40;18.50;;;6.13;;
76103;SDS011;64831;44.870;37.336;2023-01-15T08:05:07;13.93;;;5.55;;
76103;SDS011;64831;44.870;37.336;2023-01-15T08:07:37;17.40;;;5.70;;
76103;SDS011;64831;44.870;37.336;2023-01-15T08:10:04;16.85;;;5.55;;
76103;SDS011;64831;44.870;37.336;2023-01-15T08:12:31;26.45;;;7.88;;
76103;SDS011;64831;44.870;37.336;2023-01-15T08:15:15;8.23;;;3.97;;
76103;SDS011;64831;44.870;37.336;2023-01-15T08:17:45;19.08;;;4.55;;
76103;SDS011;64831;44.870;37.336;2023-01-15T08:20:18;9.82;;;3.58;;
76103;SDS011;64831;44.870;37.336;2023-01-15T08:22:46;14.00;;;5.63;;
76103;SDS011;64831;44.870;37.336;2023-01-15T08:25:14;14.00;;;5.22;;
76103;SDS011;64831;44.870;37.336;2023-01-15T08:27:41;14.55;;;4.57;;
76103;SDS011;64831;44.870;37.336;2023-01-15T08:30:09;16.83;;;2.95;;
76103;SDS011;64831;44.870;37.336;2023-01-15T08:32:38;22.45;;;5.25;;
76103;SDS011;64831;44.870;37.336;2023-01-15T08:35:04;14.10;;;5.88;;
76103;SDS011;64831;44.870;37.336;2023-01-15T08:37:31;13.98;;;5.75;;
76103;SDS011;64831;44.870;37.336;2023-01-15T08:39:56;19.88;;;6.05;;
76103;SDS011;64831;44.870;37.336;2023-01-15T08:42:22;13.93;;;4.05;;
76103;SDS011;64831;44.870;37.336;2023-01-15T08:44:48;15.85;;;4.90;;
76103;SDS011;64831;44.870;37.336;2023-01-15T08:47:15;17.27;;;4.32;;
76103;SDS011;64831;44.870;37.336;2023-01-15T08:49:41;21.90;;;4.65;;
76103;SDS011;64831;44.870;37.336;2023-01-15T08:52:07;8.93;;;3.63;;
76103;SDS011;64831;44.870;37.336;2023-01-15T08:54:33;12.23;;;3.97;;
76103;SDS011;64831;44.870;37.336;2023-01-15T08:57:00;15.43;;;3.58;;
76103;SDS011;64831;44.870;37.336;2023-01-15T08:59:26;12.32;;;4.43;;
76103;SDS011;64831;44.870;37.336;2023-01-15T09:01:52;6.32;;;2.83;;
76103;SDS011;64831;44.870;37.336;2023-01-15T09:04:19;7.97;;;3.40;;
76103;SDS011;64831;44.870;37.336;2023-01-15T09:06:45;16.42;;;5.10;;
76103;SDS011;64831;44.870;37.336;2023-01-15T09:09:12;7.63;;;3.30;;
76103;SDS011;64831;44.870;37.336;2023-01-15T09:11:39;19.77;;;3.13;;
76103;SDS011;64831;44.870;37.336;2023-01-15T09:14:08;9.05;;;3.88;;
76103;SDS011;64831;44.870;37.336;2023-01-15T09:19:02;8.15;;;2.45;;
76103;SDS011;64831;44.870;37.336;2023-01-15T09:21:29;12.32;;;4.28;;
76103;SDS011;64831;44.870;37.336;2023-01-15T09:23:55;14.20;;;4.10;;
76103;SDS011;64831;44.870;37.336;2023-01-15T09:26:31;6.45;;;2.95;;
76103;SDS011;64831;44.870;37.336;2023-01-15T09:28:59;9.80;;;2.78;;
76103;SDS011;64831;44.870;37.336;2023-01-15T09:31:26;10.65;;;4.15;;
76103;SDS011;64831;44.870;37.336;2023-01-15T09:33:53;10.85;;;2.97;;
76103;SDS011;64831;44.870;37.336;2023-01-15T09:38:50;13.43;;;3.92;;
76103;SDS011;64831;44.870;37.336;2023-01-15T09:41:17;13.85;;;3.95;;
76103;SDS011;64831;44.870;37.336;2023-01-15T09:49:36;11.98;;;4.18;;
76103;SDS011;64831;44.870;37.336;2023-01-15T09:57:36;13.25;;;4.78;;
76103;SDS011;64831;44.870;37.336;2023-01-15T10:00:02;10.10;;;3.97;;
76103;SDS011;64831;44.870;37.336;2023-01-15T10:10:38;7.47;;;2.47;;
76103;SDS011;64831;44.870;37.336;2023-01-15T10:13:18;9.95;;;2.70;;
76103;SDS011;64831;44.870;37.336;2023-01-15T10:16:05;6.50;;;2.65;;
76103;SDS011;64831;44.870;37.336;2023-01-15T10:18:31;8.05;;;2.95;;
76103;SDS011;64831;44.870;37.336;2023-01-15T10:20:59;9.15;;;2.97;;
76103;SDS011;64831;44.870;37.336;2023-01-15T10:28:58;9.73;;;3.92;;
76103;SDS011;64831;44.870;37.336;2023-01-15T10:31:44;9.93;;;2.65;;
76103;SDS011;64831;44.870;37.336;2023-01-15T10:37:15;16.42;;;4.35;;
76103;SDS011;64831;44.870;37.336;2023-01-15T10:45:33;12.38;;;3.65;;
76103;SDS011;64831;44.870;37.336;2023-01-15T10:48:08;17.15;;;4.47;;
76103;SDS011;64831;44.870;37.336;2023-01-15T10:50:39;21.30;;;6.15;;
76103;SDS011;64831;44.870;37.336;2023-01-15T10:55:44;13.90;;;4.63;;
76103;SDS011;64831;44.870;37.336;2023-01-15T11:01:03;14.82;;;4.03;;
76103;SDS011;64831;44.870;37.336;2023-01-15T11:03:35;12.07;;;3.95;;
76103;SDS011;64831;44.870;37.336;2023-01-15T11:06:03;17.77;;;4.50;;
76103;SDS011;64831;44.870;37.336;2023-01-15T11:08:36;19.40;;;4.13;;
76103;SDS011;64831;44.870;37.336;2023-01-15T11:11:15;13.65;;;5.30;;
76103;SDS011;64831;44.870;37.336;2023-01-15T11:14:17;15.57;;;4.55;;
76103;SDS011;64831;44.870;37.336;2023-01-15T11:17:02;12.68;;;3.90;;
76103;SDS011;64831;44.870;37.336;2023-01-15T11:19:33;16.70;;;4.85;;
76103;SDS011;64831;44.870;37.336;2023-01-15T11:22:07;19.27;;;4.80;;
76103;SDS011;64831;44.870;37.336;2023-01-15T11:24:45;16.83;;;4.38;;
76103;SDS011;64831;44.870;37.336;2023-01-15T11:27:17;10.60;;;3.97;;
76103;SDS011;64831;44.870;37.336;2023-01-15T11:29:51;10.60;;;4.30;;
76103;SDS011;64831;44.870;37.336;2023-01-15T11:32:24;13.60;;;4.72;;
76103;SDS011;64831;44.870;37.336;2023-01-15T11:34:55;16.60;;;5.25;;
76103;SDS011;64831;44.870;37.336;2023-01-15T11:37:23;16.27;;;4.78;;
76103;SDS011;64831;44.870;37.336;2023-01-15T11:39:58;19.42;;;5.30;;
76103;SDS011;64831;44.870;37.336;2023-01-15T11:42:35;18.05;;;5.32;;
76103;SDS011;64831;44.870;37.336;2023-01-15T11:45:21;14.50;;;4.80;;
76103;SDS011;64831;44.870;37.336;2023-01-15T11:48:16;17.17;;;5.43;;
76103;SDS011;64831;44.870;37.336;2023-01-15T11:51:06;16.52;;;5.40;;
76103;SDS011;64831;44.870;37.336;2023-01-15T11:53:37;21.80;;;3.78;;
76103;SDS011;64831;44.870;37.336;2023-01-15T11:56:12;14.70;;;3.63;;
76103;SDS011;64831;44.870;37.336;2023-01-15T11:58:44;17.60;;;3.92;;
76103;SDS011;64831;44.870;37.336;2023-01-15T12:01:13;13.95;;;4.65;;
76103;SDS011;64831;44.870;37.336;2023-01-15T12:04:00;13.80;;;4.25;;
76103;SDS011;64831;44.870;37.336;2023-01-15T12:06:29;15.85;;;4.85;;
76103;SDS011;64831;44.870;37.336;2023-01-15T12:14:37;11.80;;;3.97;;
76103;SDS011;64831;44.870;37.336;2023-01-15T12:17:24;13.93;;;4.65;;
76103;SDS011;64831;44.870;37.336;2023-01-15T12:20:15;17.33;;;3.83;;
76103;SDS011;64831;44.870;37.336;2023-01-15T12:25:33;12.30;;;3.95;;
76103;SDS011;64831;44.870;37.336;2023-01-15T12:28:09;13.68;;;4.65;;
76103;SDS011;64831;44.870;37.336;2023-01-15T12:30:45;14.63;;;3.92;;
76103;SDS011;64831;44.870;37.336;2023-01-15T12:35:57;14.38;;;3.92;;
76103;SDS011;64831;44.870;37.336;2023-01-15T12:47:21;13.40;;;3.60;;
76103;SDS011;64831;44.870;37.336;2023-01-15T12:49:54;7.25;;;2.75;;
76103;SDS011;64831;44.870;37.336;2023-01-15T12:52:35;10.63;;;4.20;;
76103;SDS011;64831;44.870;37.336;2023-01-15T12:55:18;18.10;;;4.10;;
76103;SDS011;64831;44.870;37.336;2023-01-15T12:57:58;5.95;;;2.25;;
76103;SDS011;64831;44.870;37.336;2023-01-15T13:00:33;10.52;;;3.55;;
76103;SDS011;64831;44.870;37.336;2023-01-15T13:05:56;22.15;;;3.95;;
76103;SDS011;64831;44.870;37.336;2023-01-15T13:08:36;10.70;;;3.25;;
76103;SDS011;64831;44.870;37.336;2023-01-15T13:11:11;12.00;;;3.25;;
76103;SDS011;64831;44.870;37.336;2023-01-15T13:13:40;5.03;;;1.90;;
76103;SDS011;64831;44.870;37.336;2023-01-15T13:18:51;12.85;;;2.92;;
76103;SDS011;64831;44.870;37.336;2023-01-15T13:21:37;11.93;;;3.70;;
76103;SDS011;64831;44.870;37.336;2023-01-15T13:27:15;10.98;;;4.18;;
76103;SDS011;64831;44.870;37.336;2023-01-15T13:32:33;10.73;;;2.90;;
76103;SDS011;64831;44.870;37.336;2023-01-15T13:37:53;4.60;;;2.05;;
76103;SDS011;64831;44.870;37.336;2023-01-15T13:40:26;9.25;;;3.72;;
76103;SDS011;64831;44.870;37.336;2023-01-15T13:42:57;8.55;;;2.90;;
76103;SDS011;64831;44.870;37.336;2023-01-15T13:45:34;20.00;;;3.55;;
76103;SDS011;64831;44.870;37.336;2023-01-15T13:56:24;8.27;;;2.70;;
76103;SDS011;64831;44.870;37.336;2023-01-15T13:58:58;13.52;;;3.53;;
76103;SDS011;64831;44.870;37.336;2023-01-15T14:06:36;9.43;;;2.80;;
76103;SDS011;64831;44.870;37.336;2023-01-15T14:09:03;13.98;;;2.72;;
76103;SDS011;64831;44.870;37.336;2023-01-15T14:11:31;10.00;;;3.47;;
76103;SDS011;64831;44.870;37.336;2023-01-15T14:16:55;14.05;;;3.70;;
76103;SDS011;64831;44.870;37.336;2023-01-15T14:24:52;9.90;;;3.17;;
76103;SDS011;64831;44.870;37.336;2023-01-15T14:30:44;12.80;;;3.95;;
76103;SDS011;64831;44.870;37.336;2023-01-15T14:35:54;17.00;;;3.90;;
76103;SDS011;64831;44.870;37.336;2023-01-15T14:38:24;15.55;;;3.58;;
76103;SDS011;64831;44.870;37.336;2023-01-15T14:43:24;17.58;;;4.20;;
76103;SDS011;64831;44.870;37.336;2023-01-15T14:45:52;13.32;;;3.75;;
76103;SDS011;64831;44.870;37.336;2023-01-15T14:50:53;16.52;;;4.40;;
76103;SDS011;64831;44.870;37.336;2023-01-15T14:53:32;15.68;;;4.53;;
76103;SDS011;64831;44.870;37.336;2023-01-15T14:56:05;7.35;;;3.13;;
76103;SDS011;64831;44.870;37.336;2023-01-15T15:07:10;16.20;;;4.13;;
76103;SDS011;64831;44.870;37.336;2023-01-15T15:09:39;16.75;;;3.75;;
76103;SDS011;64831;44.870;37.336;2023-01-15T15:14:53;9.48;;;2.35;;
76103;SDS011;64831;44.870;37.336;2023-01-15T15:17:34;9.15;;;4.05;;
76103;SDS011;64831;44.870;37.336;2023-01-15T15:22:50;23.40;;;5.53;;
76103;SDS011;64831;44.870;37.336;2023-01-15T15:25:21;8.27;;;2.92;;
76103;SDS011;64831;44.870;37.336;2023-01-15T15:28:23;13.45;;;4.68;;
76103;SDS011;64831;44.870;37.336;2023-01-15T15:30:42;24.13;;;5.22;;
76103;SDS011;64831;44.870;37.336;2023-01-15T15:33:11;8.18;;;2.53;;
76103;SDS011;64831;44.870;37.336;2023-01-15T15:35:49;9.90;;;3.08;;
76103;SDS011;64831;44.870;37.336;2023-01-15T15:38:22;13.75;;;4.70;;
76103;SDS011;64831;44.870;37.336;2023-01-15T15:40:50;7.57;;;1.95;;
76103;SDS011;64831;44.870;37.336;2023-01-15T15:43:52;8.98;;;2.60;;
76103;SDS011;64831;44.870;37.336;2023-01-15T15:46:30;11.32;;;3.83;;
76103;SDS011;64831;44.870;37.336;2023-01-15T15:49:16;10.38;;;4.13;;
76103;SDS011;64831;44.870;37.336;2023-01-15T15:51:48;12.95;;;3.72;;
76103;SDS011;64831;44.870;37.336;2023-01-15T15:54:25;11.38;;;3.13;;
76103;SDS011;64831;44.870;37.336;2023-01-15T15:56:55;12.05;;;3.72;;
76103;SDS011;64831;44.870;37.336;2023-01-15T15:59:36;6.43;;;3.25;;
76103;SDS011;64831;44.870;37.336;2023-01-15T16:02:16;8.48;;;3.63;;
76103;SDS011;64831;44.870;37.336;2023-01-15T16:04:45;7.88;;;2.35;;
76103;SDS011;64831;44.870;37.336;2023-01-15T16:07:23;18.83;;;3.97;;
76103;SDS011;64831;44.870;37.336;2023-01-15T16:09:51;7.25;;;2.20;;
76103;SDS011;64831;44.870;37.336;2023-01-15T16:12:20;9.63;;;3.05;;
76103;SDS011;64831;44.870;37.336;2023-01-15T16:14:47;18.85;;;4.70;;
76103;SDS011;64831;44.870;37.336;2023-01-15T16:17:15;8.68;;;2.20;;
76103;SDS011;64831;44.870;37.336;2023-01-15T16:19:41;12.95;;;3.08;;
76103;SDS011;64831;44.870;37.336;2023-01-15T16:22:09;13.23;;;2.83;;
76103;SDS011;64831;44.870;37.336;2023-01-15T16:24:39;17.08;;;3.30;;
76103;SDS011;64831;44.870;37.336;2023-01-15T16:27:06;18.55;;;4.03;;
76103;SDS011;64831;44.870;37.336;2023-01-15T16:29:44;16.58;;;3.50;;
76103;SDS011;64831;44.870;37.336;2023-01-15T16:32:16;12.20;;;2.92;;
76103;SDS011;64831;44.870;37.336;2023-01-15T16:34:46;12.57;;;4.20;;
76103;SDS011;64831;44.870;37.336;2023-01-15T16:37:25;6.28;;;2.55;;
76103;SDS011;64831;44.870;37.336;2023-01-15T16:39:55;10.20;;;2.88;;
76103;SDS011;64831;44.870;37.336;2023-01-15T16:45:02;15.30;;;4.35;;
76103;SDS011;64831;44.870;37.336;2023-01-15T16:47:32;5.55;;;1.70;;
76103;SDS011;64831;44.870;37.336;2023-01-15T16:55:36;5.88;;;2.00;;
76103;SDS011;64831;44.870;37.336;2023-01-15T17:00:41;11.52;;;3.55;;
76103;SDS011;64831;44.870;37.336;2023-01-15T17:03:12;14.35;;;3.58;;
76103;SDS011;64831;44.870;37.336;2023-01-15T17:05:50;4.43;;;2.08;;
76103;SDS011;64831;44.870;37.336;2023-01-15T17:10:59;4.72;;;2.25;;
76103;SDS011;64831;44.870;37.336;2023-01-15T17:13:32;23.27;;;4.10;;
76103;SDS011;64831;44.870;37.336;2023-01-15T17:16:12;14.52;;;4.00;;
76103;SDS011;64831;44.870;37.336;2023-01-15T17:18:49;10.77;;;3.55;;
76103;SDS011;64831;44.870;37.336;2023-01-15T17:23:43;11.27;;;4.15;;
76103;SDS011;64831;44.870;37.336;2023-01-15T17:26:14;17.67;;;4.47;;
76103;SDS011;64831;44.870;37.336;2023-01-15T17:28:51;13.73;;;2.50;;